Time;durP1;ratioP1;P1;durP2;ratioP2;P2;SDS_P1;SDS_P2;PMS_P1;PMS_P2;Temp;Humidity;BMP_temperature;BMP_pressure;BME280_temperature;BME280_humidity;BME280_pressure;Samples;Min_cycle;Max_cycle;Signal;HPM_P1;HPM_P2
2021/11/12 00:12:22;;;;;;;21.27;14.10;;;11.10;80.20;;;;;;5047467;28;20087;-81
2021/11/12 00:14:50;;;;;;;19.20;13.25;;;11.00;80.10;;;;;;5020640;28;20100;-81
2021/11/12 00:17:18;;;;;;;24.17;14.82;;;11.10;80.10;;;;;;5041171;28;20064;-81
2021/11/12 00:19:43;;;;;;;26.38;15.57;;;11.00;80.10;;;;;;5044485;28;20411;-81
2021/11/12 00:22:10;;;;;;;20.50;13.40;;;11.00;80.20;;;;;;5034110;28;20026;-81
2021/11/12 00:24:35;;;;;;;20.58;14.05;;;11.00;80.40;;;;;;5037884;28;20033;-81
2021/11/12 00:27:04;;;;;;;21.33;13.30;;;11.00;80.40;;;;;;5030170;28;20021;-82
2021/11/12 00:29:30;;;;;;;19.98;14.05;;;11.00;80.40;;;;;;5028993;28;20108;-80
2021/11/12 00:32:11;;;;;;;21.15;14.05;;;11.00;80.40;;;;;;5029065;28;20044;-80
2021/11/12 00:34:53;;;;;;;24.35;16.50;;;10.90;80.40;;;;;;5032047;28;20040;-80
2021/11/12 00:40:10;;;;;;;23.40;15.38;;;10.90;80.40;;;;;;5034385;28;20075;-79
2021/11/12 00:42:41;;;;;;;23.25;14.35;;;10.90;80.40;;;;;;5032826;28;20411;-80
2021/11/12 00:45:08;;;;;;;18.00;12.63;;;10.90;80.50;;;;;;5032222;28;20542;-81
2021/11/12 00:55:24;;;;;;;19.52;13.23;;;10.90;80.40;;;;;;5033738;28;20045;-80
2021/11/12 00:57:50;;;;;;;18.77;12.65;;;10.90;80.40;;;;;;5033834;28;20029;-80
2021/11/12 01:00:16;;;;;;;21.15;13.55;;;10.90;80.50;;;;;;5033758;28;20035;-80
2021/11/12 01:02:42;;;;;;;19.35;13.40;;;10.90;80.60;;;;;;5032630;28;20021;-80
2021/11/12 01:05:09;;;;;;;20.60;12.65;;;10.90;81.20;;;;;;5033223;28;20043;-81
2021/11/12 01:07:35;;;;;;;20.45;14.07;;;11.00;80.50;;;;;;5033594;28;20103;-80
2021/11/12 01:10:03;;;;;;;21.92;15.75;;;10.90;81.00;;;;;;5033896;28;20018;-80
2021/11/12 01:12:29;;;;;;;18.17;11.48;;;10.90;80.50;;;;;;5033182;28;20403;-80
2021/11/12 01:14:56;;;;;;;25.88;16.90;;;10.90;80.50;;;;;;5032363;28;20025;-80
2021/11/12 01:17:23;;;;;;;22.90;16.15;;;10.70;80.60;;;;;;5034353;28;20478;-80
2021/11/12 01:19:50;;;;;;;25.10;15.98;;;10.70;80.80;;;;;;5034251;28;20029;-80
2021/11/12 01:22:16;;;;;;;22.70;14.98;;;10.70;81.00;;;;;;5034377;28;20459;-80
2021/11/12 01:24:41;;;;;;;21.70;14.18;;;10.60;81.10;;;;;;5033691;28;20112;-80
2021/11/12 01:27:08;;;;;;;24.23;16.98;;;10.60;81.20;;;;;;5034121;28;20040;-80
2021/11/12 01:29:35;;;;;;;23.67;16.80;;;10.60;81.30;;;;;;5032864;28;20581;-81
2021/11/12 01:32:21;;;;;;;26.42;17.25;;;10.60;81.40;;;;;;5032817;28;20022;-82
2021/11/12 01:34:49;;;;;;;26.75;17.60;;;10.60;81.50;;;;;;5032398;28;20033;-81
2021/11/12 01:37:17;;;;;;;22.00;14.73;;;10.50;81.40;;;;;;5032684;28;20025;-81
2021/11/12 01:39:42;;;;;;;22.20;13.85;;;10.50;81.60;;;;;;5032654;28;20033;-81
2021/11/12 01:42:08;;;;;;;21.55;14.85;;;10.50;81.60;;;;;;5032577;28;20022;-81
2021/11/12 01:44:41;;;;;;;23.02;14.55;;;10.50;81.60;;;;;;5031384;28;20025;-80
2021/11/12 01:47:23;;;;;;;23.73;16.08;;;10.50;81.60;;;;;;5033773;28;20025;-80
2021/11/12 01:49:51;;;;;;;13.20;9.15;;;10.60;81.60;;;;;;5032389;28;20483;-80
2021/11/12 01:54:52;;;;;;;24.00;16.50;;;10.60;81.40;;;;;;5033415;28;20488;-80
2021/11/12 02:00:08;;;;;;;21.17;13.65;;;10.60;81.30;;;;;;5033805;28;19912;-80
2021/11/12 02:02:34;;;;;;;21.48;14.93;;;10.50;81.40;;;;;;5032195;28;20398;-80
2021/11/12 02:04:59;;;;;;;22.05;14.38;;;10.50;81.40;;;;;;5031772;28;20025;-80
2021/11/12 02:07:25;;;;;;;22.60;15.02;;;10.60;81.50;;;;;;5033479;28;20022;-79
2021/11/12 02:09:51;;;;;;;23.95;15.45;;;10.60;81.40;;;;;;5033242;28;20031;-80
2021/11/12 02:14:44;;;;;;;17.92;12.35;;;10.60;81.50;;;;;;5032933;28;20483;-80
2021/11/12 02:17:18;;;;;;;15.25;10.52;;;10.50;81.40;;;;;;5031896;28;20462;-80
2021/11/12 02:19:53;;;;;;;22.83;14.45;;;10.50;81.40;;;;;;5031886;28;20049;-80
2021/11/12 02:22:19;;;;;;;16.77;11.18;;;10.50;81.40;;;;;;5031671;28;20026;-80
2021/11/12 02:25:04;;;;;;;20.13;13.40;;;10.50;81.40;;;;;;5032667;28;20049;-79
2021/11/12 02:27:43;;;;;;;22.23;14.77;;;10.50;81.50;;;;;;5031652;28;20507;-80
2021/11/12 02:30:10;;;;;;;19.83;13.60;;;10.50;81.40;;;;;;5032803;28;20448;-83
2021/11/12 02:32:36;;;;;;;18.58;12.60;;;10.50;81.50;;;;;;5031736;28;20056;-82
2021/11/12 02:35:03;;;;;;;22.98;15.52;;;10.40;81.50;;;;;;5032473;28;20029;-82
2021/11/12 02:37:31;;;;;;;26.92;16.67;;;10.40;81.50;;;;;;5032698;28;20040;-83
2021/11/12 02:39:57;;;;;;;27.52;17.50;;;10.30;81.70;;;;;;5032478;28;20022;-82
2021/11/12 02:42:24;;;;;;;27.33;17.10;;;10.20;81.90;;;;;;5032233;28;20072;-82
2021/11/12 02:44:51;;;;;;;24.80;16.00;;;10.10;82.10;;;;;;5032191;28;20020;-81
2021/11/12 02:47:18;;;;;;;35.03;21.70;;;10.10;82.30;;;;;;5032310;28;20036;-81
2021/11/12 02:49:44;;;;;;;31.92;20.00;;;10.00;82.40;;;;;;5032556;28;20626;-82
2021/11/12 02:52:11;;;;;;;27.17;18.20;;;10.00;82.40;;;;;;5031223;28;20021;-81
2021/11/12 02:54:38;;;;;;;29.52;19.58;;;9.90;82.50;;;;;;5030686;28;20018;-80
2021/11/12 02:57:05;;;;;;;30.80;19.20;;;9.90;82.40;;;;;;5032183;28;20021;-81
2021/11/12 02:59:31;;;;;;;31.38;18.90;;;9.90;82.40;;;;;;5032425;28;20029;-80
2021/11/12 03:02:03;;;;;;;27.58;16.92;;;9.80;82.20;;;;;;5032337;28;20033;-80
2021/11/12 03:04:28;;;;;;;26.60;17.23;;;9.90;82.40;;;;;;5031972;28;20021;-79
2021/11/12 03:06:57;;;;;;;33.03;20.15;;;9.90;82.10;;;;;;5032337;28;20428;-79
2021/11/12 03:09:28;;;;;;;34.28;21.35;;;9.80;82.00;;;;;;5031119;28;20025;-80
2021/11/12 03:11:54;;;;;;;27.83;17.23;;;9.80;81.90;;;;;;5032189;28;20033;-79
2021/11/12 03:14:21;;;;;;;30.13;18.00;;;9.70;81.90;;;;;;5031603;28;20506;-79
2021/11/12 03:16:47;;;;;;;31.15;18.80;;;9.70;82.00;;;;;;5031145;28;20026;-81
2021/11/12 03:19:13;;;;;;;32.28;19.95;;;9.60;82.00;;;;;;5032287;28;20387;-81
2021/11/12 03:21:40;;;;;;;20.73;12.93;;;9.50;82.70;;;;;;5030844;28;20021;-81
2021/11/12 03:24:25;;;;;;;23.15;13.70;;;9.60;82.20;;;;;;5030411;28;20120;-81
2021/11/12 05:56:56;;;;;;;24.63;16.58;;;6.90;82.10;;;;;;5033914;28;20052;-78
2021/11/12 05:59:23;;;;;;;20.95;14.77;;;6.90;82.00;;;;;;5031648;28;20026;-78
2021/11/12 06:01:49;;;;;;;18.40;13.35;;;6.90;81.90;;;;;;5031577;28;20503;-77
2021/11/12 06:04:15;;;;;;;16.58;12.27;;;6.90;81.90;;;;;;5032274;28;20028;-78
2021/11/12 06:06:42;;;;;;;21.95;17.05;;;6.90;81.70;;;;;;5033184;28;20033;-78
2021/11/12 06:09:08;;;;;;;24.58;15.30;;;6.90;81.50;;;;;;5033435;28;20018;-78
2021/11/12 06:11:34;;;;;;;19.00;13.63;;;6.90;81.70;;;;;;5033448;28;20021;-78
2021/11/12 06:14:00;;;;;;;20.02;14.48;;;7.00;81.70;;;;;;5032828;28;20025;-78
2021/11/12 06:16:27;;;;;;;20.25;14.95;;;6.90;81.40;;;;;;5033597;28;20029;-79
2021/11/12 06:18:53;;;;;;;23.15;17.63;;;6.80;81.40;;;;;;5033271;28;20040;-78
2021/11/12 06:21:19;;;;;;;23.02;16.30;;;6.70;81.40;;;;;;5048420;28;20032;-78
2021/11/12 06:23:45;;;;;;;24.70;16.48;;;6.60;81.50;;;;;;5047793;28;20029;-78
2021/11/12 06:26:11;;;;;;;24.48;17.20;;;6.60;81.70;;;;;;5033003;28;20519;-79
2021/11/12 06:28:37;;;;;;;18.48;13.63;;;6.50;82.00;;;;;;5033107;28;20091;-79
2021/11/12 06:31:03;;;;;;;23.88;16.38;;;6.50;82.30;;;;;;5029618;28;20022;-78
2021/11/12 06:33:30;;;;;;;18.67;14.20;;;6.50;82.40;;;;;;5011768;28;20033;-79
2021/11/12 06:35:59;;;;;;;19.38;13.98;;;6.50;82.40;;;;;;5012834;28;20080;-78
2021/11/12 06:38:27;;;;;;;19.13;13.27;;;6.50;82.30;;;;;;5025853;28;20045;-80
2021/11/12 06:40:55;;;;;;;16.17;11.85;;;6.60;82.10;;;;;;5031484;28;20033;-78
2021/11/12 06:43:35;;;;;;;19.23;13.63;;;6.60;82.00;;;;;;5032036;28;20025;-78
2021/11/12 06:51:28;;;;;;;20.67;14.93;;;6.70;81.50;;;;;;5030974;28;20117;-78
2021/11/12 06:53:55;;;;;;;21.63;15.57;;;6.60;81.30;;;;;;5031543;28;20041;-78
2021/11/12 06:56:23;;;;;;;20.45;14.23;;;6.40;81.40;;;;;;5032714;28;20017;-78
2021/11/12 06:58:49;;;;;;;20.23;14.88;;;6.40;81.70;;;;;;5030660;28;20050;-79
2021/11/12 07:01:15;;;;;;;18.25;13.15;;;6.30;81.80;;;;;;5032327;28;20044;-78
2021/11/12 07:03:40;;;;;;;19.50;13.38;;;6.30;82.00;;;;;;5031885;28;20029;-78
2021/11/12 07:06:06;;;;;;;20.33;13.98;;;6.50;82.10;;;;;;5032108;28;20056;-79
2021/11/12 07:08:32;;;;;;;16.27;11.48;;;6.50;81.90;;;;;;5047616;28;20075;-79
2021/11/12 07:10:58;;;;;;;20.38;14.77;;;6.50;81.80;;;;;;5032204;28;20105;-79
2021/11/12 07:13:25;;;;;;;24.88;17.23;;;6.30;81.50;;;;;;5032266;28;20112;-79
2021/11/12 07:15:52;;;;;;;23.30;16.05;;;6.30;81.60;;;;;;5031875;28;20025;-78
2021/11/12 07:18:19;;;;;;;22.30;15.43;;;6.20;82.00;;;;;;5032262;28;20108;-79
2021/11/12 07:20:46;;;;;;;20.80;14.73;;;6.10;82.20;;;;;;5030816;28;20018;-79
2021/11/12 07:23:12;;;;;;;22.75;15.48;;;6.10;82.40;;;;;;5032135;28;20082;-79
2021/11/12 07:25:38;;;;;;;24.25;17.65;;;6.00;82.50;;;;;;5031507;28;20064;-79
2021/11/12 07:28:04;;;;;;;23.05;15.25;;;5.90;82.50;;;;;;5047304;28;20420;-79
2021/11/12 07:30:30;;;;;;;24.40;18.27;;;5.90;82.70;;;;;;5031971;28;20041;-78
2021/11/12 07:32:55;;;;;;;23.85;17.55;;;5.80;82.80;;;;;;5032180;28;20250;-78
2021/11/12 07:35:25;;;;;;;21.98;15.55;;;5.80;83.00;;;;;;5031590;28;20408;-78
2021/11/12 07:37:58;;;;;;;23.85;17.30;;;5.80;83.00;;;;;;5047452;28;20028;-77
2021/11/12 07:40:30;;;;;;;21.75;16.80;;;5.80;83.10;;;;;;5047184;28;20124;-78
2021/11/12 07:43:18;;;;;;;25.17;17.42;;;5.80;83.10;;;;;;5029985;28;20028;-78
2021/11/12 07:45:52;;;;;;;23.55;16.02;;;5.80;83.20;;;;;;5031295;28;20059;-78
2021/11/12 07:48:18;;;;;;;23.80;16.27;;;5.70;83.20;;;;;;5031754;28;20028;-78
2021/11/12 07:50:43;;;;;;;23.10;16.73;;;5.80;83.30;;;;;;5031520;28;20029;-77
2021/11/12 07:53:09;;;;;;;21.75;15.38;;;5.80;83.20;;;;;;5031712;28;20041;-77
2021/11/12 07:55:35;;;;;;;24.17;15.88;;;5.80;83.20;;;;;;5031295;28;20053;-77
2021/11/12 07:58:00;;;;;;;24.23;15.70;;;5.80;83.10;;;;;;5031608;28;20037;-76
2021/11/12 08:00:26;;;;;;;25.98;17.13;;;5.80;83.00;;;;;;5031796;28;20478;-77
2021/11/12 08:02:52;;;;;;;22.35;15.52;;;5.80;83.10;;;;;;5030442;28;20113;-76
2021/11/12 08:05:29;;;;;;;22.60;16.35;;;5.70;83.30;;;;;;5031136;28;20105;-77
2021/11/12 08:08:00;;;;;;;24.35;15.15;;;5.70;83.50;;;;;;5031209;28;20022;-77
2021/11/12 08:10:29;;;;;;;22.73;15.65;;;5.80;83.50;;;;;;5027171;28;20049;-77
2021/11/12 08:13:09;;;;;;;26.60;18.17;;;5.90;83.40;;;;;;5019707;28;20022;-77
2021/11/12 08:15:50;;;;;;;23.08;16.10;;;5.80;83.20;;;;;;5019969;28;20048;-77
2021/11/12 08:21:01;;;;;;;19.33;12.93;;;5.80;83.30;;;;;;5020504;28;20026;-77
2021/11/12 08:23:43;;;;;;;23.35;16.38;;;5.90;83.30;;;;;;5021166;28;20357;-78
2021/11/12 08:26:21;;;;;;;23.40;15.27;;;5.80;83.10;;;;;;5018547;28;20037;-78
2021/11/12 08:31:28;;;;;;;26.33;17.98;;;5.90;83.30;;;;;;5021200;28;20391;-78
2021/11/12 08:34:03;;;;;;;18.13;12.77;;;5.90;83.30;;;;;;5020535;28;20062;-79
2021/11/12 08:36:52;;;;;;;19.70;13.85;;;6.00;83.30;;;;;;5019220;28;20026;-76
2021/11/12 08:42:03;;;;;;;17.48;11.85;;;6.10;83.10;;;;;;5021196;28;20029;-77
2021/11/12 08:44:42;;;;;;;22.15;15.18;;;6.20;83.10;;;;;;5019820;28;20396;-77
2021/11/12 08:47:14;;;;;;;22.05;15.15;;;6.20;82.90;;;;;;5021266;28;20052;-77
2021/11/12 08:49:42;;;;;;;25.20;16.57;;;6.20;82.80;;;;;;5025994;28;20096;-79
2021/11/12 08:52:11;;;;;;;22.15;15.10;;;6.30;82.70;;;;;;5018525;28;20268;-79
2021/11/12 08:54:38;;;;;;;23.30;15.50;;;6.40;82.70;;;;;;5022239;28;20216;-79
2021/11/12 08:57:09;;;;;;;24.80;15.23;;;6.40;82.40;;;;;;5031274;28;20033;-79
2021/11/12 08:59:37;;;;;;;25.00;17.40;;;6.40;82.20;;;;;;5031739;28;20038;-79
2021/11/12 09:02:02;;;;;;;26.23;17.02;;;6.40;82.20;;;;;;5028390;28;20020;-78
2021/11/12 09:04:28;;;;;;;29.42;19.88;;;6.40;82.20;;;;;;5022938;28;20029;-79
2021/11/12 09:06:54;;;;;;;26.83;18.88;;;6.40;82.20;;;;;;5029030;28;20014;-78
2021/11/12 09:09:20;;;;;;;27.83;17.85;;;6.30;82.40;;;;;;5024256;28;20041;-79
2021/11/12 09:11:46;;;;;;;28.85;19.27;;;6.40;82.40;;;;;;5023288;28;20018;-80
2021/11/12 09:14:17;;;;;;;26.85;17.17;;;6.30;82.30;;;;;;5028754;28;20109;-79
2021/11/12 09:16:45;;;;;;;28.98;18.75;;;6.40;82.50;;;;;;5022721;28;20025;-79
2021/11/12 09:19:13;;;;;;;27.73;16.95;;;6.40;82.50;;;;;;5022241;28;20649;-78
2021/11/12 09:21:39;;;;;;;26.70;17.40;;;6.40;82.40;;;;;;5022178;28;20018;-78
2021/11/12 09:24:05;;;;;;;25.45;17.30;;;6.50;82.30;;;;;;5022620;28;20089;-79
2021/11/12 09:26:34;;;;;;;27.20;18.33;;;6.50;82.20;;;;;;5023552;28;20049;-78
2021/11/12 09:29:00;;;;;;;31.23;20.52;;;6.50;82.20;;;;;;5031488;28;20464;-79
2021/11/12 09:31:26;;;;;;;31.98;21.85;;;6.50;82.20;;;;;;5022662;28;20083;-78
2021/11/12 09:33:51;;;;;;;33.78;21.90;;;6.50;82.20;;;;;;5023346;28;20018;-78
2021/11/12 09:36:17;;;;;;;27.35;18.88;;;6.50;82.20;;;;;;5021828;28;20026;-79
2021/11/12 09:38:44;;;;;;;34.45;22.52;;;6.50;82.30;;;;;;5023252;28;20044;-78
2021/11/12 09:41:10;;;;;;;35.45;22.42;;;6.50;82.80;;;;;;5023245;28;20064;-78
2021/11/12 09:43:36;;;;;;;41.67;25.55;;;6.50;82.30;;;;;;5024195;28;20387;-80
2021/11/12 09:46:04;;;;;;;34.30;23.20;;;6.50;82.30;;;;;;5032569;28;20014;-79
2021/11/12 09:48:31;;;;;;;32.40;19.45;;;6.50;82.40;;;;;;5031038;28;20052;-79
2021/11/12 09:50:56;;;;;;;36.25;22.77;;;6.60;82.40;;;;;;5033957;28;20505;-78
2021/11/12 09:53:22;;;;;;;37.42;23.25;;;6.60;82.40;;;;;;5032426;28;20025;-77
2021/11/12 09:55:48;;;;;;;34.58;21.70;;;6.60;82.30;;;;;;5048638;28;20021;-78
2021/11/12 09:58:15;;;;;;;34.67;21.30;;;6.60;82.40;;;;;;5032130;28;20151;-78
2021/11/12 10:00:42;;;;;;;25.63;17.17;;;6.70;82.40;;;;;;5047370;28;20106;-79
2021/11/12 10:03:09;;;;;;;29.58;19.52;;;6.80;82.30;;;;;;5052644;28;20021;-79
2021/11/12 10:05:40;;;;;;;33.50;22.00;;;6.90;82.20;;;;;;5052377;28;20467;-78
2021/11/12 10:08:28;;;;;;;28.55;17.25;;;7.00;81.90;;;;;;5049616;28;20119;-79
2021/11/12 10:11:00;;;;;;;32.17;20.20;;;7.10;81.50;;;;;;5021797;28;20122;-78
2021/11/12 10:13:35;;;;;;;27.90;18.60;;;7.10;81.20;;;;;;5053118;28;20033;-79
2021/11/12 10:19:14;;;;;;;39.05;25.33;;;7.30;81.30;;;;;;5053134;28;20116;-80
2021/11/12 10:21:43;;;;;;;40.38;25.00;;;7.20;80.20;;;;;;5051910;28;20037;-78
2021/11/12 10:24:35;;;;;;;29.75;19.63;;;7.20;80.10;;;;;;5052764;28;20052;-75
2021/11/12 10:27:11;;;;;;;33.40;22.17;;;7.20;80.30;;;;;;5039204;28;20079;-78
2021/11/12 10:29:46;;;;;;;31.63;20.92;;;7.20;80.20;;;;;;5052821;28;20017;-77
2021/11/12 10:32:18;;;;;;;29.88;19.35;;;7.40;80.10;;;;;;5052954;28;20032;-77
2021/11/12 10:34:45;;;;;;;;;;;7.50;79.90;;;;;;5053052;28;20024;-76
2021/11/12 10:37:22;;;;;;;34.38;21.92;;;7.50;79.50;;;;;;5051579;28;19905;-77
2021/11/12 10:39:56;;;;;;;36.58;22.27;;;7.40;79.40;;;;;;5052798;28;20108;-76
2021/11/12 10:42:28;;;;;;;33.88;20.30;;;7.30;79.70;;;;;;5051171;28;20039;-76
2021/11/12 10:44:59;;;;;;;29.48;19.50;;;7.40;79.90;;;;;;5052565;28;20025;-78
2021/11/12 10:47:26;;;;;;;32.78;21.33;;;7.40;79.90;;;;;;5036794;28;20018;-78
2021/11/12 10:49:59;;;;;;;34.17;22.33;;;7.40;79.90;;;;;;5012879;28;20446;-76
2021/11/12 10:52:30;;;;;;;35.03;22.92;;;7.40;79.90;;;;;;5011318;28;20518;-77
2021/11/12 10:55:04;;;;;;;36.50;21.17;;;7.40;80.10;;;;;;5012686;28;20032;-77
2021/11/12 10:57:35;;;;;;;36.78;22.75;;;7.40;80.20;;;;;;5012887;28;20061;-77
2021/11/12 11:00:12;;;;;;;32.15;21.73;;;7.50;80.10;;;;;;5011643;28;20033;-77
2021/11/12 11:02:47;;;;;;;30.65;19.77;;;7.50;80.10;;;;;;5011360;28;20476;-77
2021/11/12 11:05:19;;;;;;;32.03;19.10;;;7.60;80.10;;;;;;5012179;28;20034;-78
2021/11/12 11:07:56;;;;;;;34.42;21.55;;;7.70;80.00;;;;;;5012620;28;20022;-78
2021/11/12 11:10:25;;;;;;;32.25;18.40;;;7.80;79.80;;;;;;5011305;28;20712;-78
2021/11/12 11:12:51;;;;;;;29.33;18.63;;;7.90;79.60;;;;;;5012568;28;20487;-78
2021/11/12 11:15:40;;;;;;;32.40;21.45;;;8.10;79.50;;;;;;5012079;28;20022;-77
2021/11/12 11:18:18;;;;;;;31.05;19.75;;;8.20;79.10;;;;;;5010196;28;20042;-77
2021/11/12 11:20:48;;;;;;;28.67;19.25;;;8.20;78.70;;;;;;5011122;28;20025;-78
2021/11/12 11:23:15;;;;;;;31.85;19.73;;;8.30;78.70;;;;;;5011192;28;20053;-78
2021/11/12 11:26:08;;;;;;;32.85;21.15;;;8.30;78.50;;;;;;5010098;28;20117;-77
2021/11/12 11:28:36;;;;;;;34.42;23.63;;;8.40;78.30;;;;;;5011726;28;20057;-78
2021/11/12 11:31:04;;;;;;;29.05;19.05;;;8.40;78.10;;;;;;5012268;28;20099;-77
2021/11/12 11:33:30;;;;;;;40.90;26.15;;;8.50;78.10;;;;;;5011832;28;20024;-77
2021/11/12 11:35:56;;;;;;;29.40;19.85;;;8.40;77.60;;;;;;5011904;28;20022;-78
2021/11/12 11:38:30;;;;;;;32.92;21.90;;;8.40;77.80;;;;;;5010828;28;20037;-78
2021/11/12 11:40:57;;;;;;;29.50;20.90;;;8.50;77.80;;;;;;5012268;28;20079;-77
2021/11/12 11:43:24;;;;;;;30.92;20.60;;;8.60;77.90;;;;;;5027347;28;20092;-77
2021/11/12 11:45:50;;;;;;;36.20;23.17;;;8.60;77.70;;;;;;5011709;28;20017;-77
2021/11/12 11:48:17;;;;;;;33.65;22.85;;;8.70;77.30;;;;;;5012276;28;20153;-77
2021/11/12 11:50:56;;;;;;;38.30;24.33;;;8.60;77.10;;;;;;5012156;28;20417;-77
2021/11/12 11:53:40;;;;;;;41.20;25.80;;;8.50;77.20;;;;;;5012143;28;20029;-77
2021/11/12 11:56:23;;;;;;;39.55;24.95;;;8.40;77.40;;;;;;5012046;28;20030;-77
2021/11/12 11:58:52;;;;;;;35.47;22.75;;;8.40;77.50;;;;;;5012021;28;20038;-76
2021/11/12 12:01:27;;;;;;;37.65;25.17;;;8.30;77.90;;;;;;5011977;28;20037;-77
2021/11/12 12:04:15;;;;;;;37.22;24.83;;;8.30;77.70;;;;;;5010183;28;20496;-77
2021/11/12 12:07:00;;;;;;;34.17;22.60;;;8.30;77.80;;;;;;5010628;28;20052;-77
2021/11/12 12:09:48;;;;;;;35.83;23.63;;;8.20;78.00;;;;;;5012019;28;20522;-76
2021/11/12 12:12:39;;;;;;;35.03;23.70;;;8.30;78.10;;;;;;5011907;28;20050;-76
2021/11/12 12:15:04;;;;;;;35.05;22.98;;;8.30;78.80;;;;;;5011421;28;20088;-76
2021/11/12 12:17:32;;;;;;;30.40;21.13;;;8.40;78.10;;;;;;5011845;28;20384;-76
2021/11/12 12:20:23;;;;;;;39.15;25.42;;;8.40;78.10;;;;;;5011707;28;20105;-77
2021/11/12 13:20:18;;;;;;;41.25;26.17;;;8.60;78.90;;;;;;5034179;28;20062;-77
2021/11/12 13:25:46;;;;;;;42.75;25.50;;;8.60;79.10;;;;;;5030366;28;20140;-76
2021/11/12 13:28:17;;;;;;;35.85;23.25;;;8.60;79.10;;;;;;5033557;28;20060;-76
2021/11/12 13:31:08;;;;;;;36.95;23.42;;;8.50;79.00;;;;;;5033642;28;20061;-76
2021/11/12 13:33:45;;;;;;;35.33;21.98;;;8.60;78.90;;;;;;5033746;28;20362;-76
2021/11/12 13:36:35;;;;;;;35.95;23.67;;;8.60;78.80;;;;;;5033850;28;20021;-76
2021/11/12 13:39:01;;;;;;;40.38;25.48;;;8.60;78.70;;;;;;5033763;28;20551;-77
2021/11/12 13:41:30;;;;;;;35.25;22.63;;;8.60;78.60;;;;;;5026057;28;20063;-76
2021/11/12 13:44:06;;;;;;;33.90;21.40;;;8.70;78.80;;;;;;5023306;28;20026;-76
2021/11/12 13:47:10;;;;;;;32.83;20.65;;;8.70;78.80;;;;;;5031902;28;20033;-76
2021/11/12 13:49:40;;;;;;;37.03;23.17;;;8.70;78.70;;;;;;5032661;28;20021;-77
2021/11/12 13:52:12;;;;;;;34.35;22.35;;;8.70;78.30;;;;;;5032179;28;20029;-76
2021/11/12 13:54:42;;;;;;;38.00;24.35;;;8.70;78.30;;;;;;5027679;28;20021;-76
2021/11/12 13:57:14;;;;;;;38.00;24.35;;;8.80;78.40;;;;;;5032884;28;20108;-77
2021/11/12 13:59:54;;;;;;;37.60;24.13;;;8.70;78.30;;;;;;5032141;28;20073;-79
2021/11/12 14:02:20;;;;;;;61.03;28.63;;;8.70;78.30;;;;;;5033359;28;20276;-76
2021/11/12 14:04:46;;;;;;;31.27;20.27;;;8.60;78.30;;;;;;5032097;28;20070;-76
2021/11/12 14:07:20;;;;;;;34.90;22.60;;;8.60;78.60;;;;;;5032659;28;20117;-76
2021/11/12 14:10:06;;;;;;;40.17;24.38;;;8.60;78.70;;;;;;5031848;28;20026;-76
2021/11/12 14:12:32;;;;;;;39.53;24.30;;;8.60;78.80;;;;;;5020650;28;20415;-77
2021/11/12 14:15:34;;;;;;;31.83;20.73;;;8.60;79.00;;;;;;5031702;28;20025;-76
2021/11/12 14:21:09;;;;;;;33.55;20.73;;;8.70;79.20;;;;;;5026162;28;20466;-76
2021/11/12 14:24:25;;;;;;;37.92;24.25;;;8.60;79.10;;;;;;5032029;28;20045;-76
2021/11/12 14:27:04;;;;;;;38.00;24.42;;;8.60;79.30;;;;;;5031365;28;20076;-76
2021/11/12 14:35:05;;;;;;;34.55;22.33;;;8.60;79.80;;;;;;5031260;28;20107;-76
2021/11/12 14:40:18;;;;;;;40.30;25.25;;;8.60;79.70;;;;;;5031841;28;20060;-76
2021/11/12 14:45:52;;;;;;;35.20;21.77;;;8.50;80.00;;;;;;5031235;28;20038;-75
2021/11/12 14:56:18;;;;;;;39.95;25.25;;;8.40;80.30;;;;;;5031813;28;20029;-76
2021/11/12 14:58:53;;;;;;;29.13;18.70;;;8.40;80.30;;;;;;5031801;28;20056;-76
2021/11/12 15:01:22;;;;;;;40.60;25.48;;;8.50;80.40;;;;;;5031463;28;20029;-76
2021/11/12 15:03:48;;;;;;;30.17;18.52;;;8.50;80.20;;;;;;5031037;28;20484;-76
2021/11/12 15:06:16;;;;;;;34.83;20.67;;;8.50;80.20;;;;;;5031523;28;20040;-75
2021/11/12 15:09:05;;;;;;;38.00;24.83;;;8.50;80.10;;;;;;5030648;28;20095;-76
2021/11/12 15:11:32;;;;;;;31.35;20.77;;;8.50;80.10;;;;;;5031095;28;20025;-76
2021/11/12 15:14:11;;;;;;;33.97;21.92;;;8.50;80.10;;;;;;5029015;28;20037;-76
2021/11/12 15:16:41;;;;;;;35.45;23.15;;;8.50;80.10;;;;;;5030540;28;20030;-76
2021/11/12 15:19:11;;;;;;;35.95;24.05;;;8.40;80.10;;;;;;5013437;28;20397;-76
2021/11/12 15:21:44;;;;;;;36.55;24.08;;;8.40;80.30;;;;;;5029511;28;20017;-75
2021/11/12 15:27:06;;;;;;;35.77;23.87;;;8.40;80.60;;;;;;5030779;28;20037;-76
2021/11/12 15:29:35;;;;;;;31.52;21.33;;;8.30;80.60;;;;;;5031336;28;20087;-76
2021/11/12 15:34:31;;;;;;;37.55;24.00;;;8.30;80.80;;;;;;5030416;28;20484;-77
2021/11/12 15:37:06;;;;;;;32.45;20.70;;;8.30;81.00;;;;;;5031156;28;20048;-77
2021/11/12 15:44:30;;;;;;;39.03;26.38;;;8.30;81.30;;;;;;5030247;28;20033;-77
2021/11/12 15:52:44;;;;;;;39.05;25.42;;;8.20;81.70;;;;;;5031224;28;20026;-78
2021/11/12 16:06:27;;;;;;;34.65;23.75;;;8.20;81.90;;;;;;5035749;28;20037;-78
2021/11/12 16:11:18;;;;;;;35.75;22.17;;;8.30;82.00;;;;;;5035645;28;20048;-78
2021/11/12 16:13:48;;;;;;;38.28;24.85;;;8.30;82.00;;;;;;5035320;28;20577;-78
2021/11/12 16:16:30;;;;;;;36.03;22.77;;;8.20;82.10;;;;;;5034330;28;20476;-78
2021/11/12 16:19:25;;;;;;;34.47;22.35;;;8.20;82.20;;;;;;5030726;28;20091;-78
2021/11/12 16:27:10;;;;;;;38.25;23.25;;;8.20;82.50;;;;;;5015833;28;20396;-77
2021/11/12 16:29:47;;;;;;;39.42;25.05;;;8.20;82.40;;;;;;5023229;28;20022;-78
2021/11/12 16:32:58;;;;;;;35.30;24.05;;;8.10;82.50;;;;;;5025000;28;20541;-78
2021/11/12 16:35:06;;;;;;;29.83;20.05;;;8.20;82.70;;;;;;5018038;28;20031;-78
2021/11/12 16:37:32;;;;;;;32.83;22.50;;;8.20;82.60;;;;;;5023475;28;20022;-77
2021/11/12 16:45:38;;;;;;;33.20;22.17;;;8.30;82.50;;;;;;5024812;28;20033;-77
2021/11/12 16:50:40;;;;;;;33.38;21.30;;;8.30;82.40;;;;;;5024528;28;20484;-77
2021/11/12 16:58:26;;;;;;;28.77;19.27;;;8.30;82.40;;;;;;5034456;28;20033;-78
2021/11/12 17:46:47;;;;;;;23.63;16.63;;;8.60;81.70;;;;;;5034326;28;20120;-85
2021/11/12 17:49:33;;;;;;;18.70;12.60;;;8.70;81.70;;;;;;5032650;28;20060;-84
2021/11/12 18:02:43;;;;;;;16.17;12.40;;;8.90;81.20;;;;;;5033915;28;20067;-84
2021/11/12 18:05:27;;;;;;;18.88;12.40;;;9.00;81.10;;;;;;5031914;28;20025;-84
2021/11/12 18:11:00;;;;;;;20.85;13.30;;;9.00;80.90;;;;;;5033401;28;20438;-84
2021/11/12 21:45:37;;;;;;;11.88;7.70;;;10.10;82.10;;;;;;5052119;28;20044;-86
2021/11/12 21:48:03;;;;;;;9.85;6.95;;;10.10;82.00;;;;;;5050602;28;20420;-87
2021/11/12 21:50:32;;;;;;;11.93;8.82;;;10.10;81.90;;;;;;5051880;28;20094;-87
2021/11/12 21:53:00;;;;;;;12.23;8.70;;;10.10;81.90;;;;;;5051083;28;20151;-86
2021/11/12 21:55:26;;;;;;;10.77;7.88;;;10.10;81.90;;;;;;5050267;28;20439;-77
2021/11/12 21:57:51;;;;;;;14.13;8.68;;;10.10;82.00;;;;;;5051550;28;20155;-78
2021/11/12 22:00:18;;;;;;;14.43;9.63;;;10.10;81.90;;;;;;5051202;28;20024;-77
2021/11/12 22:02:44;;;;;;;13.50;9.85;;;10.10;81.90;;;;;;5050858;28;20017;-77
2021/11/12 22:05:09;;;;;;;15.27;10.80;;;10.10;81.90;;;;;;5050654;28;20033;-77
2021/11/12 22:07:36;;;;;;;14.02;9.98;;;10.10;81.90;;;;;;5051909;28;20028;-77
2021/11/12 22:10:04;;;;;;;15.00;10.30;;;10.10;81.90;;;;;;5050244;28;20033;-77
2021/11/12 22:12:29;;;;;;;15.82;10.63;;;10.20;82.00;;;;;;5050777;28;20028;-77
2021/11/12 22:14:55;;;;;;;15.18;8.80;;;10.20;82.00;;;;;;5049826;28;20040;-77
2021/11/12 22:17:21;;;;;;;16.48;12.48;;;10.20;82.00;;;;;;5048572;28;20059;-77
2021/11/12 22:19:46;;;;;;;16.52;12.60;;;10.20;82.20;;;;;;5049923;28;20029;-76
2021/11/12 22:22:12;;;;;;;15.25;11.25;;;10.20;82.40;;;;;;5051691;28;20102;-77
2021/11/12 22:24:37;;;;;;;16.75;10.70;;;10.20;82.40;;;;;;5050465;28;20059;-77
2021/11/12 22:27:03;;;;;;;17.98;13.50;;;10.20;82.50;;;;;;5051178;28;20112;-76
2021/11/12 22:29:29;;;;;;;16.80;12.35;;;10.20;82.70;;;;;;5051421;28;20021;-77
2021/11/12 22:31:57;;;;;;;16.88;10.77;;;10.20;82.80;;;;;;5050097;28;20047;-77
2021/11/12 22:34:23;;;;;;;14.57;11.20;;;10.20;82.70;;;;;;5050813;28;20025;-77
2021/11/12 22:36:48;;;;;;;16.80;10.50;;;10.30;82.90;;;;;;5050917;28;20442;-77
2021/11/12 22:39:17;;;;;;;13.50;9.50;;;10.30;82.90;;;;;;5051045;28;20039;-77
2021/11/12 22:41:44;;;;;;;16.23;10.75;;;10.30;82.80;;;;;;5050540;28;20021;-77
2021/11/12 22:44:10;;;;;;;15.88;10.48;;;10.40;82.90;;;;;;5051079;28;20072;-78
2021/11/12 22:46:37;;;;;;;15.02;10.10;;;10.30;82.80;;;;;;5050613;28;20047;-77
2021/11/12 22:49:04;;;;;;;14.15;9.55;;;10.40;82.80;;;;;;5051302;28;20029;-77
2021/11/12 22:51:32;;;;;;;15.82;10.52;;;10.40;82.70;;;;;;5050823;28;20029;-77